»·PEaware :: N7GL KBFL-KSNA

N7GL :: KBFL-KSNA

FLIGHT INFORMATION

Flight Status: Arrived
Operator: Privately registered:
United States
More flights under this callsign
Pilot: Georg L. (13308)
Aircraft: BEECH AIRCRAFT SUPER KING AIR 350
(B350)
More flights by this aircraft type
Origin: KBFL Meadows
United States
Destination: KSNA John Wayne-Orange Co
United States
More flights between these airports :: More routes between these airports
Route: +MEADO4 LHS V459 SLI
File this flight plan on PilotEdge
Remarks:
Altitude:
(Current/Filed)
19,000ft
Speed:
(Current/Filed)
302kts
Departed: 28-Nov-20 11:42 AM
Arrived: 28-Nov-20 12:26 PM
Distance/Time
Traveled:
121nm/0:44
Distance/Time
To Go:
Arrived

Flight Plot

Page will automatically refresh every two minutes.

Flight plan parsing failed; only flown route is shown


Map Options




Map Legend


Flown Route
Filed Route
Departure Airport
Arrival Airport
Navaid (VOR, NDB)
Fix

Horizontal Profiles

Position Reports

Time Latitude Longitude Heading Altitude Ground
Speed
28-Nov-20 10:57 35.429678 -119.046638 136 500ft 0kts
28-Nov-20 10:58 35.429678 -119.046638 136 500ft 0kts
28-Nov-20 10:59 35.429678 -119.046638 136 500ft 0kts
28-Nov-20 11:00 35.429678 -119.046638 136 500ft 0kts
28-Nov-20 11:01 35.429678 -119.046638 136 500ft 0kts
28-Nov-20 11:02 35.429678 -119.046638 136 500ft 0kts
28-Nov-20 11:03 35.429678 -119.046638 136 500ft 0kts
28-Nov-20 11:04 35.429678 -119.046638 136 500ft 0kts
28-Nov-20 11:05 35.429678 -119.046638 136 500ft 0kts
28-Nov-20 11:06 35.429678 -119.046638 136 500ft 0kts
28-Nov-20 11:07 35.429678 -119.046638 136 500ft 0kts
28-Nov-20 11:08 35.429678 -119.046638 136 500ft 0kts
28-Nov-20 11:09 35.429678 -119.046638 136 500ft 0kts
28-Nov-20 11:10 35.429678 -119.046638 136 500ft 0kts
28-Nov-20 11:11 35.429678 -119.046638 136 500ft 0kts
28-Nov-20 11:12 35.429678 -119.046638 136 500ft 0kts
28-Nov-20 11:13 35.429678 -119.046638 136 500ft 0kts
28-Nov-20 11:14 35.429678 -119.046638 136 500ft 0kts
28-Nov-20 11:15 35.429678 -119.046638 136 500ft 0kts
28-Nov-20 11:16 35.429678 -119.046638 136 500ft 0kts
28-Nov-20 11:17 35.429678 -119.046638 136 500ft 0kts
28-Nov-20 11:18 35.429678 -119.046638 136 500ft 0kts
28-Nov-20 11:19 35.429678 -119.046638 136 500ft 0kts
28-Nov-20 11:20 35.429678 -119.046638 136 500ft 0kts
28-Nov-20 11:21 35.429678 -119.046638 136 500ft 0kts
28-Nov-20 11:22 35.429678 -119.046638 136 500ft 0kts
28-Nov-20 11:23 35.429678 -119.046638 136 500ft 0kts
28-Nov-20 11:24 35.429678 -119.046638 136 500ft 0kts
28-Nov-20 11:25 35.429678 -119.046638 136 500ft 0kts
28-Nov-20 11:26 35.429678 -119.046638 136 500ft 0kts
28-Nov-20 11:27 35.429678 -119.046638 136 500ft 0kts
28-Nov-20 11:28 35.429678 -119.046638 136 500ft 0kts
28-Nov-20 11:29 35.429083 -119.046613 208 500ft 0kts
28-Nov-20 11:30 35.428180 -119.047127 133 500ft 6kts
28-Nov-20 11:31 35.425861 -119.044971 224 500ft 0kts
28-Nov-20 11:32 35.425861 -119.044972 224 500ft 0kts
28-Nov-20 11:33 35.425861 -119.044971 224 500ft 0kts
28-Nov-20 11:34 35.425854 -119.044980 224 500ft 0kts
28-Nov-20 11:35 35.425854 -119.044980 224 500ft 0kts
28-Nov-20 11:36 35.425853 -119.044980 223 500ft 0kts
28-Nov-20 11:37 35.425854 -119.044980 224 500ft 0kts
28-Nov-20 11:38 35.425854 -119.044980 224 500ft 0kts
28-Nov-20 11:39 35.425854 -119.044980 224 500ft 0kts
28-Nov-20 11:40 35.425696 -119.046340 316 500ft 8kts
28-Nov-20 11:42 35.445719 -119.068121 319 1693ft 136kts
28-Nov-20 11:43 35.480270 -119.108603 314 3023ft 216kts
28-Nov-20 11:44 35.528223 -119.169340 314 3029ft 267kts
28-Nov-20 11:45 35.531541 -119.238364 200 3675ft 228kts
28-Nov-20 11:46 35.479581 -119.223521 139 5503ft 208kts
28-Nov-20 11:47 35.433324 -119.184608 147 8088ft 185kts
28-Nov-20 11:48 35.390553 -119.149335 146 10453ft 189kts
28-Nov-20 11:49 35.346283 -119.113087 147 12648ft 196kts
28-Nov-20 11:50 35.301755 -119.076714 147 14990ft 192kts
28-Nov-20 11:51 35.257561 -119.040680 147 17013ft 192kts
28-Nov-20 11:52 35.213215 -119.004626 147 18725ft 192kts
28-Nov-20 11:53 35.162714 -118.963674 147 19005ft 249kts
28-Nov-20 11:54 35.100546 -118.913338 147 18989ft 281kts
28-Nov-20 11:55 35.033793 -118.859357 147 18984ft 293kts
28-Nov-20 11:56 34.965257 -118.804021 147 19008ft 297kts
28-Nov-20 11:56 34.907734 -118.757796 147 18981ft 299kts
28-Nov-20 11:58 34.828268 -118.693899 146 19066ft 303kts
28-Nov-20 11:59 34.754996 -118.635070 147 17608ft 317kts
28-Nov-20 12:00 34.681867 -118.577621 150 16096ft 311kts
28-Nov-20 12:01 34.604733 -118.531438 154 14606ft 309kts
28-Nov-20 12:02 34.527512 -118.486454 154 13115ft 307kts
28-Nov-20 12:02 34.465573 -118.450305 153 12992ft 295kts
28-Nov-20 12:04 34.378936 -118.399559 154 12990ft 298kts
28-Nov-20 12:04 34.316407 -118.363142 154 12990ft 299kts
28-Nov-20 12:05 34.241384 -118.319618 154 12491ft 301kts
28-Nov-20 12:06 34.166170 -118.276140 154 11009ft 298kts
28-Nov-20 12:07 34.099446 -118.237483 154 10964ft 294kts
28-Nov-20 12:08 34.049451 -118.208361 153 10963ft 295kts
28-Nov-20 12:09 33.975122 -118.165964 160 10943ft 297kts
28-Nov-20 12:10 33.894035 -118.166035 181 9474ft 289kts
28-Nov-20 12:11 33.815442 -118.169828 181 7990ft 284kts
28-Nov-20 12:12 33.741362 -118.157324 128 6629ft 274kts
28-Nov-20 12:13 33.760801 -118.080093 51 5428ft 267kts
28-Nov-20 12:14 33.807161 -118.010794 51 4968ft 269kts
28-Nov-20 12:15 33.853319 -117.941734 51 4966ft 263kts
28-Nov-20 12:16 33.898748 -117.873537 51 3936ft 242kts
28-Nov-20 12:17 33.938424 -117.813646 51 3957ft 221kts
28-Nov-20 12:18 33.936107 -117.744182 104 3960ft 215kts
28-Nov-20 12:19 33.884563 -117.736786 203 3960ft 212kts
28-Nov-20 12:20 33.833587 -117.768793 208 3679ft 188kts
28-Nov-20 12:21 33.794475 -117.793485 208 2690ft 163kts
28-Nov-20 12:22 33.753794 -117.819362 208 1669ft 160kts
28-Nov-20 12:23 33.717901 -117.842176 209 962ft 137kts
28-Nov-20 12:24 33.688047 -117.860954 208 237ft 106kts
28-Nov-20 12:25 33.674064 -117.869173 70 61ft 8kts
28-Nov-20 12:26 33.673702 -117.867131 121 61ft 0kts
28-Nov-20 12:27 33.672276 -117.867216 110 61ft 8kts
28-Nov-20 12:28 33.672384 -117.866793 206 61ft 3kts
28-Nov-20 12:29 33.672347 -117.866816 207 61ft 0kts
28-Nov-20 12:30 33.672347 -117.866816 207 61ft 0kts
28-Nov-20 12:31 33.672347 -117.866816 207 61ft 0kts
28-Nov-20 12:32 33.672347 -117.866816 207 61ft 0kts
28-Nov-20 12:33 33.672347 -117.866816 207 61ft 0kts
28-Nov-20 12:34 33.672347 -117.866816 207 61ft 0kts
28-Nov-20 12:35 33.672347 -117.866816 207 61ft 0kts
28-Nov-20 12:36 33.672347 -117.866816 207 61ft 0kts
28-Nov-20 12:37 33.672347 -117.866816 207 61ft 0kts
28-Nov-20 12:38 33.672347 -117.866816 207 61ft 0kts
28-Nov-20 12:39 33.672347 -117.866816 207 61ft 0kts

Navigation Log

Ident Type
Flight plan parsing failed, navigation log unavailable